sensor_id;sensor_type;location;lat;lon;timestamp;P1;durP1;ratioP1;P2;durP2;ratioP2
11596;SDS011;5854;48.072;16.286;2023-05-07T05:20:32;10.30;;;9.27;;
11596;SDS011;5854;48.072;16.286;2023-05-07T05:23:23;12.85;;;10.43;;
11596;SDS011;5854;48.072;16.286;2023-05-07T05:26:03;10.18;;;9.20;;
11596;SDS011;5854;48.072;16.286;2023-05-07T05:28:30;11.48;;;10.27;;
11596;SDS011;5854;48.072;16.286;2023-05-07T05:31:04;12.77;;;11.57;;
11596;SDS011;5854;48.072;16.286;2023-05-07T05:33:33;11.77;;;10.48;;
11596;SDS011;5854;48.072;16.286;2023-05-07T05:36:01;13.15;;;11.93;;
11596;SDS011;5854;48.072;16.286;2023-05-07T05:38:32;12.95;;;11.65;;
11596;SDS011;5854;48.072;16.286;2023-05-07T05:40:59;10.35;;;9.40;;
11596;SDS011;5854;48.072;16.286;2023-05-07T05:43:26;11.85;;;10.23;;
11596;SDS011;5854;48.072;16.286;2023-05-07T05:45:54;12.48;;;11.18;;
11596;SDS011;5854;48.072;16.286;2023-05-07T05:48:22;12.75;;;11.15;;
11596;SDS011;5854;48.072;16.286;2023-05-07T05:50:49;17.25;;;11.73;;
11596;SDS011;5854;48.072;16.286;2023-05-07T05:53:17;13.57;;;12.13;;
11596;SDS011;5854;48.072;16.286;2023-05-07T05:55:44;15.38;;;12.30;;
11596;SDS011;5854;48.072;16.286;2023-05-07T05:58:12;13.65;;;12.25;;
11596;SDS011;5854;48.072;16.286;2023-05-07T06:00:41;20.77;;;14.38;;
11596;SDS011;5854;48.072;16.286;2023-05-07T06:03:18;16.17;;;14.60;;
11596;SDS011;5854;48.072;16.286;2023-05-07T06:05:49;19.73;;;14.57;;
11596;SDS011;5854;48.072;16.286;2023-05-07T06:11:18;21.95;;;17.25;;
11596;SDS011;5854;48.072;16.286;2023-05-07T06:13:45;19.92;;;17.83;;
11596;SDS011;5854;48.072;16.286;2023-05-07T06:16:15;20.80;;;17.58;;
11596;SDS011;5854;48.072;16.286;2023-05-07T06:18:45;18.95;;;16.35;;
11596;SDS011;5854;48.072;16.286;2023-05-07T08:33:18;18.58;;;15.30;;
11596;SDS011;5854;48.072;16.286;2023-05-07T08:35:52;17.48;;;15.00;;
11596;SDS011;5854;48.072;16.286;2023-05-07T08:38:31;16.15;;;14.18;;
11596;SDS011;5854;48.072;16.286;2023-05-07T08:40:58;17.60;;;14.25;;
11596;SDS011;5854;48.072;16.286;2023-05-07T08:46:41;16.23;;;14.40;;
11596;SDS011;5854;48.072;16.286;2023-05-07T08:49:12;15.45;;;13.60;;
11596;SDS011;5854;48.072;16.286;2023-05-07T08:51:40;16.55;;;14.95;;
11596;SDS011;5854;48.072;16.286;2023-05-07T08:54:08;14.38;;;12.52;;
11596;SDS011;5854;48.072;16.286;2023-05-07T08:56:37;16.42;;;14.70;;
11596;SDS011;5854;48.072;16.286;2023-05-07T09:22:47;14.07;;;12.63;;
11596;SDS011;5854;48.072;16.286;2023-05-07T09:25:18;14.02;;;12.18;;
11596;SDS011;5854;48.072;16.286;2023-05-07T09:27:55;13.43;;;11.98;;
11596;SDS011;5854;48.072;16.286;2023-05-07T09:30:22;12.80;;;11.48;;
11596;SDS011;5854;48.072;16.286;2023-05-07T09:32:51;14.30;;;12.02;;
11596;SDS011;5854;48.072;16.286;2023-05-07T09:35:18;14.60;;;11.90;;
11596;SDS011;5854;48.072;16.286;2023-05-07T09:37:48;13.63;;;12.27;;
11596;SDS011;5854;48.072;16.286;2023-05-07T09:40:21;11.70;;;10.60;;
11596;SDS011;5854;48.072;16.286;2023-05-07T09:42:50;13.57;;;11.60;;
11596;SDS011;5854;48.072;16.286;2023-05-07T09:45:21;12.65;;;11.57;;
11596;SDS011;5854;48.072;16.286;2023-05-07T09:47:49;13.68;;;12.15;;
11596;SDS011;5854;48.072;16.286;2023-05-07T09:50:22;11.95;;;10.80;;
11596;SDS011;5854;48.072;16.286;2023-05-07T09:52:55;13.05;;;11.40;;
11596;SDS011;5854;48.072;16.286;2023-05-07T09:55:23;13.00;;;11.40;;
11596;SDS011;5854;48.072;16.286;2023-05-07T09:57:51;12.73;;;11.57;;
11596;SDS011;5854;48.072;16.286;2023-05-07T10:00:21;13.48;;;12.02;;
11596;SDS011;5854;48.072;16.286;2023-05-07T10:02:49;11.38;;;10.25;;
11596;SDS011;5854;48.072;16.286;2023-05-07T10:05:18;12.23;;;10.88;;
11596;SDS011;5854;48.072;16.286;2023-05-07T10:07:46;12.80;;;11.45;;
11596;SDS011;5854;48.072;16.286;2023-05-07T10:10:25;11.50;;;10.50;;
11596;SDS011;5854;48.072;16.286;2023-05-07T10:12:54;11.68;;;10.00;;
11596;SDS011;5854;48.072;16.286;2023-05-07T10:15:26;10.73;;;9.63;;
11596;SDS011;5854;48.072;16.286;2023-05-07T10:17:55;10.55;;;9.20;;
11596;SDS011;5854;48.072;16.286;2023-05-07T10:20:26;12.93;;;11.65;;
11596;SDS011;5854;48.072;16.286;2023-05-07T10:22:54;11.60;;;10.20;;
11596;SDS011;5854;48.072;16.286;2023-05-07T10:25:28;14.77;;;11.20;;
11596;SDS011;5854;48.072;16.286;2023-05-07T10:28:00;14.73;;;13.20;;
11596;SDS011;5854;48.072;16.286;2023-05-07T10:30:35;11.18;;;10.05;;
11596;SDS011;5854;48.072;16.286;2023-05-07T10:33:23;14.80;;;11.27;;
11596;SDS011;5854;48.072;16.286;2023-05-07T10:38:34;11.25;;;10.23;;
11596;SDS011;5854;48.072;16.286;2023-05-07T12:14:22;9.15;;;7.75;;
11596;SDS011;5854;48.072;16.286;2023-05-07T12:16:53;8.57;;;7.45;;
11596;SDS011;5854;48.072;16.286;2023-05-07T12:19:20;9.10;;;8.10;;
11596;SDS011;5854;48.072;16.286;2023-05-07T12:21:48;8.82;;;8.13;;
11596;SDS011;5854;48.072;16.286;2023-05-07T12:24:15;10.20;;;7.45;;
11596;SDS011;5854;48.072;16.286;2023-05-07T12:26:43;9.18;;;8.15;;
11596;SDS011;5854;48.072;16.286;2023-05-07T12:29:10;7.68;;;7.07;;
11596;SDS011;5854;48.072;16.286;2023-05-07T12:31:41;7.13;;;6.47;;
11596;SDS011;5854;48.072;16.286;2023-05-07T12:34:10;8.23;;;7.38;;
11596;SDS011;5854;48.072;16.286;2023-05-07T12:36:37;7.25;;;6.65;;
11596;SDS011;5854;48.072;16.286;2023-05-07T12:39:05;7.78;;;6.93;;
11596;SDS011;5854;48.072;16.286;2023-05-07T12:41:35;6.97;;;5.88;;
11596;SDS011;5854;48.072;16.286;2023-05-07T12:44:18;7.78;;;6.85;;
11596;SDS011;5854;48.072;16.286;2023-05-07T12:46:47;7.35;;;6.65;;
11596;SDS011;5854;48.072;16.286;2023-05-07T12:49:14;7.18;;;6.47;;
11596;SDS011;5854;48.072;16.286;2023-05-07T12:51:43;7.00;;;6.30;;
11596;SDS011;5854;48.072;16.286;2023-05-07T12:54:10;6.90;;;6.15;;
11596;SDS011;5854;48.072;16.286;2023-05-07T12:56:37;5.90;;;5.50;;
11596;SDS011;5854;48.072;16.286;2023-05-07T12:59:06;14.45;;;6.90;;
11596;SDS011;5854;48.072;16.286;2023-05-07T13:01:33;7.60;;;6.68;;
11596;SDS011;5854;48.072;16.286;2023-05-07T13:04:02;7.60;;;6.90;;
11596;SDS011;5854;48.072;16.286;2023-05-07T13:06:30;6.97;;;5.88;;
11596;SDS011;5854;48.072;16.286;2023-05-07T13:08:57;8.57;;;5.85;;
11596;SDS011;5854;48.072;16.286;2023-05-07T13:11:24;10.25;;;7.15;;
11596;SDS011;5854;48.072;16.286;2023-05-07T13:13:51;6.30;;;5.68;;
11596;SDS011;5854;48.072;16.286;2023-05-07T13:16:18;7.85;;;7.05;;
11596;SDS011;5854;48.072;16.286;2023-05-07T13:18:51;8.10;;;7.40;;
11596;SDS011;5854;48.072;16.286;2023-05-07T13:21:29;7.60;;;6.95;;
11596;SDS011;5854;48.072;16.286;2023-05-07T13:24:03;12.05;;;7.18;;
11596;SDS011;5854;48.072;16.286;2023-05-07T13:26:31;10.65;;;7.65;;
11596;SDS011;5854;48.072;16.286;2023-05-07T13:28:58;7.22;;;6.50;;
11596;SDS011;5854;48.072;16.286;2023-05-07T13:31:25;8.35;;;7.65;;
11596;SDS011;5854;48.072;16.286;2023-05-07T13:33:52;8.60;;;7.85;;
11596;SDS011;5854;48.072;16.286;2023-05-07T13:36:21;8.75;;;8.05;;
11596;SDS011;5854;48.072;16.286;2023-05-07T13:38:49;8.18;;;7.55;;
11596;SDS011;5854;48.072;16.286;2023-05-07T13:41:17;7.10;;;6.60;;
11596;SDS011;5854;48.072;16.286;2023-05-07T13:43:45;8.10;;;7.13;;
11596;SDS011;5854;48.072;16.286;2023-05-07T13:46:12;7.47;;;6.97;;
11596;SDS011;5854;48.072;16.286;2023-05-07T13:48:39;6.65;;;6.15;;
11596;SDS011;5854;48.072;16.286;2023-05-07T13:51:06;7.60;;;6.05;;
11596;SDS011;5854;48.072;16.286;2023-05-07T13:53:40;6.28;;;5.68;;
11596;SDS011;5854;48.072;16.286;2023-05-07T13:56:14;6.85;;;6.35;;
11596;SDS011;5854;48.072;16.286;2023-05-07T13:58:53;6.78;;;6.20;;
11596;SDS011;5854;48.072;16.286;2023-05-07T14:04:16;5.85;;;5.20;;
11596;SDS011;5854;48.072;16.286;2023-05-07T14:07:41;5.50;;;5.00;;
11596;SDS011;5854;48.072;16.286;2023-05-07T14:18:13;6.00;;;5.50;;
11596;SDS011;5854;48.072;16.286;2023-05-07T14:20:43;5.55;;;4.63;;
11596;SDS011;5854;48.072;16.286;2023-05-07T14:23:11;6.13;;;5.43;;
11596;SDS011;5854;48.072;16.286;2023-05-07T14:25:39;5.40;;;4.60;;
11596;SDS011;5854;48.072;16.286;2023-05-07T14:28:10;5.50;;;4.88;;
11596;SDS011;5854;48.072;16.286;2023-05-07T14:30:37;5.30;;;4.80;;
11596;SDS011;5854;48.072;16.286;2023-05-07T14:33:04;6.55;;;4.72;;
11596;SDS011;5854;48.072;16.286;2023-05-07T14:35:31;4.22;;;3.78;;
11596;SDS011;5854;48.072;16.286;2023-05-07T14:37:58;5.50;;;5.10;;
11596;SDS011;5854;48.072;16.286;2023-05-07T14:40:25;6.45;;;5.32;;
11596;SDS011;5854;48.072;16.286;2023-05-07T14:42:52;5.25;;;4.85;;
11596;SDS011;5854;48.072;16.286;2023-05-07T14:45:21;4.68;;;4.38;;
11596;SDS011;5854;48.072;16.286;2023-05-07T14:47:48;8.43;;;5.28;;
11596;SDS011;5854;48.072;16.286;2023-05-07T14:50:20;5.10;;;4.50;;
11596;SDS011;5854;48.072;16.286;2023-05-07T14:57:58;5.20;;;4.80;;
11596;SDS011;5854;48.072;16.286;2023-05-07T15:02:59;5.22;;;4.82;;
11596;SDS011;5854;48.072;16.286;2023-05-07T15:08:13;4.68;;;4.25;;
11596;SDS011;5854;48.072;16.286;2023-05-07T15:10:40;5.18;;;4.78;;
11596;SDS011;5854;48.072;16.286;2023-05-07T15:26:25;4.57;;;3.30;;
11596;SDS011;5854;48.072;16.286;2023-05-07T15:28:52;7.53;;;2.67;;
11596;SDS011;5854;48.072;16.286;2023-05-07T15:31:21;2.55;;;2.35;;
11596;SDS011;5854;48.072;16.286;2023-05-07T15:33:48;3.47;;;3.17;;
11596;SDS011;5854;48.072;16.286;2023-05-07T15:36:16;3.17;;;2.90;;
11596;SDS011;5854;48.072;16.286;2023-05-07T15:38:44;2.88;;;2.67;;
11596;SDS011;5854;48.072;16.286;2023-05-07T15:41:11;5.05;;;2.58;;
11596;SDS011;5854;48.072;16.286;2023-05-07T15:43:43;2.55;;;2.35;;
11596;SDS011;5854;48.072;16.286;2023-05-07T15:46:12;3.50;;;2.35;;
11596;SDS011;5854;48.072;16.286;2023-05-07T15:48:45;3.65;;;1.88;;
11596;SDS011;5854;48.072;16.286;2023-05-07T15:51:12;2.20;;;2.00;;
11596;SDS011;5854;48.072;16.286;2023-05-07T15:53:39;2.30;;;2.08;;
11596;SDS011;5854;48.072;16.286;2023-05-07T15:56:06;1.95;;;1.85;;
11596;SDS011;5854;48.072;16.286;2023-05-07T15:58:33;3.33;;;2.00;;
11596;SDS011;5854;48.072;16.286;2023-05-07T16:01:02;4.32;;;2.20;;
11596;SDS011;5854;48.072;16.286;2023-05-07T16:05:57;4.93;;;2.10;;
11596;SDS011;5854;48.072;16.286;2023-05-07T16:08:26;2.30;;;2.10;;
11596;SDS011;5854;48.072;16.286;2023-05-07T16:16:09;2.30;;;2.10;;
11596;SDS011;5854;48.072;16.286;2023-05-07T16:18:37;3.42;;;2.00;;
11596;SDS011;5854;48.072;16.286;2023-05-07T16:21:05;1.83;;;1.73;;
11596;SDS011;5854;48.072;16.286;2023-05-07T16:23:36;2.78;;;1.92;;
11596;SDS011;5854;48.072;16.286;2023-05-07T16:26:04;2.15;;;1.95;;
11596;SDS011;5854;48.072;16.286;2023-05-07T16:28:31;2.03;;;1.90;;
11596;SDS011;5854;48.072;16.286;2023-05-07T16:30:58;10.98;;;2.10;;
11596;SDS011;5854;48.072;16.286;2023-05-07T16:33:27;2.42;;;2.22;;
11596;SDS011;5854;48.072;16.286;2023-05-07T16:35:54;2.33;;;1.90;;
11596;SDS011;5854;48.072;16.286;2023-05-07T16:38:21;3.20;;;1.63;;
11596;SDS011;5854;48.072;16.286;2023-05-07T16:40:51;5.13;;;1.95;;
11596;SDS011;5854;48.072;16.286;2023-05-07T16:45:52;3.20;;;2.03;;
11596;SDS011;5854;48.072;16.286;2023-05-07T16:48:19;1.88;;;1.77;;
11596;SDS011;5854;48.072;16.286;2023-05-07T16:50:51;2.40;;;2.20;;
11596;SDS011;5854;48.072;16.286;2023-05-07T16:53:18;2.50;;;2.30;;
11596;SDS011;5854;48.072;16.286;2023-05-07T16:55:45;3.55;;;2.50;;
11596;SDS011;5854;48.072;16.286;2023-05-07T16:58:12;3.40;;;2.00;;
11596;SDS011;5854;48.072;16.286;2023-05-07T17:00:40;2.88;;;2.55;;
11596;SDS011;5854;48.072;16.286;2023-05-07T17:03:07;5.82;;;2.17;;
11596;SDS011;5854;48.072;16.286;2023-05-07T17:05:34;2.80;;;2.60;;
11596;SDS011;5854;48.072;16.286;2023-05-07T17:08:04;2.35;;;2.15;;
11596;SDS011;5854;48.072;16.286;2023-05-07T17:10:31;3.00;;;2.80;;
11596;SDS011;5854;48.072;16.286;2023-05-07T17:12:58;3.13;;;2.83;;
11596;SDS011;5854;48.072;16.286;2023-05-07T17:15:25;3.30;;;3.08;;
11596;SDS011;5854;48.072;16.286;2023-05-07T17:17:52;4.15;;;2.75;;
11596;SDS011;5854;48.072;16.286;2023-05-07T17:20:19;2.83;;;2.63;;
11596;SDS011;5854;48.072;16.286;2023-05-07T17:22:46;3.22;;;3.03;;
11596;SDS011;5854;48.072;16.286;2023-05-07T17:25:15;4.50;;;2.85;;
11596;SDS011;5854;48.072;16.286;2023-05-07T17:27:42;3.72;;;3.03;;
11596;SDS011;5854;48.072;16.286;2023-05-07T17:30:10;7.03;;;3.35;;
11596;SDS011;5854;48.072;16.286;2023-05-07T17:32:39;3.42;;;3.22;;
11596;SDS011;5854;48.072;16.286;2023-05-07T17:35:06;4.88;;;3.58;;
11596;SDS011;5854;48.072;16.286;2023-05-07T17:37:34;3.67;;;2.92;;
11596;SDS011;5854;48.072;16.286;2023-05-07T17:40:02;3.33;;;3.03;;
11596;SDS011;5854;48.072;16.286;2023-05-07T17:42:31;3.72;;;3.33;;
11596;SDS011;5854;48.072;16.286;2023-05-07T17:44:58;4.55;;;3.17;;
11596;SDS011;5854;48.072;16.286;2023-05-07T17:47:25;3.38;;;3.17;;
11596;SDS011;5854;48.072;16.286;2023-05-07T17:49:52;3.65;;;3.40;;
11596;SDS011;5854;48.072;16.286;2023-05-07T17:52:19;3.60;;;3.40;;
11596;SDS011;5854;48.072;16.286;2023-05-07T17:54:46;3.75;;;3.45;;
11596;SDS011;5854;48.072;16.286;2023-05-07T17:57:13;4.10;;;3.72;;
11596;SDS011;5854;48.072;16.286;2023-05-07T17:59:42;3.17;;;2.97;;
11596;SDS011;5854;48.072;16.286;2023-05-07T18:02:09;4.18;;;3.50;;
11596;SDS011;5854;48.072;16.286;2023-05-07T18:04:36;3.42;;;3.17;;
11596;SDS011;5854;48.072;16.286;2023-05-07T18:07:03;3.97;;;3.63;;
11596;SDS011;5854;48.072;16.286;2023-05-07T18:09:30;6.63;;;3.20;;
11596;SDS011;5854;48.072;16.286;2023-05-07T18:11:57;5.68;;;3.85;;
11596;SDS011;5854;48.072;16.286;2023-05-07T18:14:24;3.40;;;3.20;;
11596;SDS011;5854;48.072;16.286;2023-05-07T18:16:53;4.28;;;3.47;;
11596;SDS011;5854;48.072;16.286;2023-05-07T18:19:20;3.50;;;3.22;;
11596;SDS011;5854;48.072;16.286;2023-05-07T18:21:47;7.00;;;2.90;;
11596;SDS011;5854;48.072;16.286;2023-05-07T18:24:14;3.35;;;2.90;;
11596;SDS011;5854;48.072;16.286;2023-05-07T18:26:41;3.80;;;3.50;;
11596;SDS011;5854;48.072;16.286;2023-05-07T18:29:08;3.50;;;3.30;;
11596;SDS011;5854;48.072;16.286;2023-05-07T18:31:35;3.10;;;2.90;;
11596;SDS011;5854;48.072;16.286;2023-05-07T18:34:03;3.13;;;2.92;;
11596;SDS011;5854;48.072;16.286;2023-05-07T18:36:31;2.95;;;2.75;;
11596;SDS011;5854;48.072;16.286;2023-05-07T18:38:58;3.40;;;3.20;;
11596;SDS011;5854;48.072;16.286;2023-05-07T18:41:25;2.92;;;2.72;;
11596;SDS011;5854;48.072;16.286;2023-05-07T18:43:52;3.88;;;3.45;;
11596;SDS011;5854;48.072;16.286;2023-05-07T18:46:19;3.60;;;3.40;;
11596;SDS011;5854;48.072;16.286;2023-05-07T18:48:46;3.65;;;3.35;;
11596;SDS011;5854;48.072;16.286;2023-05-07T18:51:15;3.10;;;2.90;;
11596;SDS011;5854;48.072;16.286;2023-05-07T18:53:45;3.03;;;2.83;;
11596;SDS011;5854;48.072;16.286;2023-05-07T18:56:12;3.55;;;3.35;;
11596;SDS011;5854;48.072;16.286;2023-05-07T18:58:46;3.17;;;2.97;;
11596;SDS011;5854;48.072;16.286;2023-05-07T19:01:16;3.10;;;2.90;;
11596;SDS011;5854;48.072;16.286;2023-05-07T19:03:46;3.47;;;3.17;;
11596;SDS011;5854;48.072;16.286;2023-05-07T19:06:16;14.57;;;4.00;;
11596;SDS011;5854;48.072;16.286;2023-05-07T19:08:46;3.58;;;3.33;;
11596;SDS011;5854;48.072;16.286;2023-05-07T19:11:13;6.00;;;2.92;;
11596;SDS011;5854;48.072;16.286;2023-05-07T19:13:41;3.55;;;3.35;;
11596;SDS011;5854;48.072;16.286;2023-05-07T19:16:08;3.55;;;3.30;;
11596;SDS011;5854;48.072;16.286;2023-05-07T19:18:38;3.22;;;2.97;;
11596;SDS011;5854;48.072;16.286;2023-05-07T19:21:06;3.75;;;3.45;;
11596;SDS011;5854;48.072;16.286;2023-05-07T19:23:35;3.70;;;3.40;;
11596;SDS011;5854;48.072;16.286;2023-05-07T19:26:06;4.05;;;3.75;;
11596;SDS011;5854;48.072;16.286;2023-05-07T19:28:34;5.95;;;3.58;;
11596;SDS011;5854;48.072;16.286;2023-05-07T19:31:03;4.55;;;3.35;;
11596;SDS011;5854;48.072;16.286;2023-05-07T19:33:31;4.05;;;3.85;;
11596;SDS011;5854;48.072;16.286;2023-05-07T19:35:58;3.45;;;3.25;;
11596;SDS011;5854;48.072;16.286;2023-05-07T19:38:26;4.20;;;3.90;;
11596;SDS011;5854;48.072;16.286;2023-05-07T19:40:55;4.05;;;3.75;;
11596;SDS011;5854;48.072;16.286;2023-05-07T19:43:24;4.63;;;4.32;;
11596;SDS011;5854;48.072;16.286;2023-05-07T19:45:51;4.72;;;4.35;;
11596;SDS011;5854;48.072;16.286;2023-05-07T19:48:18;4.65;;;4.03;;
11596;SDS011;5854;48.072;16.286;2023-05-07T19:50:46;4.47;;;4.18;;
11596;SDS011;5854;48.072;16.286;2023-05-07T19:53:14;5.18;;;4.78;;
11596;SDS011;5854;48.072;16.286;2023-05-07T19:55:41;5.38;;;4.97;;
11596;SDS011;5854;48.072;16.286;2023-05-07T19:58:09;5.30;;;4.90;;
11596;SDS011;5854;48.072;16.286;2023-05-07T20:00:37;5.65;;;5.18;;
11596;SDS011;5854;48.072;16.286;2023-05-07T20:03:05;7.03;;;5.88;;
11596;SDS011;5854;48.072;16.286;2023-05-07T20:05:32;6.63;;;6.05;;
11596;SDS011;5854;48.072;16.286;2023-05-07T20:08:00;6.50;;;6.10;;
11596;SDS011;5854;48.072;16.286;2023-05-07T20:10:27;7.60;;;6.90;;
11596;SDS011;5854;48.072;16.286;2023-05-07T20:12:55;7.00;;;6.47;;
11596;SDS011;5854;48.072;16.286;2023-05-07T20:15:25;6.30;;;5.85;;
11596;SDS011;5854;48.072;16.286;2023-05-07T20:17:52;7.15;;;6.72;;
11596;SDS011;5854;48.072;16.286;2023-05-07T20:20:20;6.47;;;5.88;;
11596;SDS011;5854;48.072;16.286;2023-05-07T20:22:47;7.60;;;7.03;;
11596;SDS011;5854;48.072;16.286;2023-05-07T20:25:15;6.32;;;5.93;;
11596;SDS011;5854;48.072;16.286;2023-05-07T20:27:42;6.85;;;6.35;;
11596;SDS011;5854;48.072;16.286;2023-05-07T20:30:10;7.22;;;6.72;;
11596;SDS011;5854;48.072;16.286;2023-05-07T20:32:39;7.30;;;6.72;;
11596;SDS011;5854;48.072;16.286;2023-05-07T20:35:07;7.10;;;6.40;;
11596;SDS011;5854;48.072;16.286;2023-05-07T20:37:35;6.50;;;6.00;;
11596;SDS011;5854;48.072;16.286;2023-05-07T20:40:04;9.55;;;7.85;;
11596;SDS011;5854;48.072;16.286;2023-05-07T20:42:33;10.98;;;8.40;;
11596;SDS011;5854;48.072;16.286;2023-05-07T20:45:00;8.70;;;7.93;;
11596;SDS011;5854;48.072;16.286;2023-05-07T20:47:29;8.60;;;7.95;;
11596;SDS011;5854;48.072;16.286;2023-05-07T20:49:59;10.00;;;9.10;;
11596;SDS011;5854;48.072;16.286;2023-05-07T20:52:26;10.60;;;9.60;;
11596;SDS011;5854;48.072;16.286;2023-05-07T20:54:53;10.88;;;9.88;;
11596;SDS011;5854;48.072;16.286;2023-05-07T20:57:20;9.18;;;8.32;;
11596;SDS011;5854;48.072;16.286;2023-05-07T20:59:47;11.65;;;10.65;;
11596;SDS011;5854;48.072;16.286;2023-05-07T21:02:15;11.73;;;10.50;;
11596;SDS011;5854;48.072;16.286;2023-05-07T21:04:42;12.23;;;11.18;;
11596;SDS011;5854;48.072;16.286;2023-05-07T21:07:11;13.18;;;12.00;;
11596;SDS011;5854;48.072;16.286;2023-05-07T21:09:38;12.13;;;11.00;;
11596;SDS011;5854;48.072;16.286;2023-05-07T21:12:06;10.85;;;9.85;;
11596;SDS011;5854;48.072;16.286;2023-05-07T21:14:33;11.63;;;10.45;;
11596;SDS011;5854;48.072;16.286;2023-05-07T21:17:02;11.00;;;10.10;;
11596;SDS011;5854;48.072;16.286;2023-05-07T21:19:31;12.98;;;11.68;;
11596;SDS011;5854;48.072;16.286;2023-05-07T21:21:58;12.38;;;11.25;;
11596;SDS011;5854;48.072;16.286;2023-05-07T21:24:26;13.02;;;11.77;;
11596;SDS011;5854;48.072;16.286;2023-05-07T21:26:53;12.52;;;11.27;;
11596;SDS011;5854;48.072;16.286;2023-05-07T21:29:20;12.07;;;11.02;;
11596;SDS011;5854;48.072;16.286;2023-05-07T21:31:48;14.43;;;12.93;;
11596;SDS011;5854;48.072;16.286;2023-05-07T21:34:16;14.52;;;12.90;;
11596;SDS011;5854;48.072;16.286;2023-05-07T21:36:44;13.80;;;12.48;;
11596;SDS011;5854;48.072;16.286;2023-05-07T21:39:11;15.10;;;13.43;;
11596;SDS011;5854;48.072;16.286;2023-05-07T21:41:39;14.40;;;12.95;;
11596;SDS011;5854;48.072;16.286;2023-05-07T21:44:06;13.40;;;12.13;;
11596;SDS011;5854;48.072;16.286;2023-05-07T21:46:35;13.85;;;12.38;;
11596;SDS011;5854;48.072;16.286;2023-05-07T21:49:02;13.38;;;12.00;;
11596;SDS011;5854;48.072;16.286;2023-05-07T21:51:29;12.20;;;11.18;;
11596;SDS011;5854;48.072;16.286;2023-05-07T21:53:58;14.27;;;12.95;;
11596;SDS011;5854;48.072;16.286;2023-05-07T21:56:25;13.80;;;12.45;;
11596;SDS011;5854;48.072;16.286;2023-05-07T21:58:53;13.75;;;12.45;;
11596;SDS011;5854;48.072;16.286;2023-05-07T22:01:20;12.38;;;11.18;;
11596;SDS011;5854;48.072;16.286;2023-05-07T22:03:47;14.45;;;13.05;;
11596;SDS011;5854;48.072;16.286;2023-05-07T22:06:15;14.27;;;12.90;;
11596;SDS011;5854;48.072;16.286;2023-05-07T22:08:45;14.18;;;12.88;;
11596;SDS011;5854;48.072;16.286;2023-05-07T22:11:13;14.45;;;13.02;;
11596;SDS011;5854;48.072;16.286;2023-05-07T22:13:49;13.95;;;12.65;;
11596;SDS011;5854;48.072;16.286;2023-05-07T22:16:23;13.30;;;12.10;;
11596;SDS011;5854;48.072;16.286;2023-05-07T22:26:36;13.18;;;12.07;;
11596;SDS011;5854;48.072;16.286;2023-05-07T22:29:07;13.63;;;12.32;;
11596;SDS011;5854;48.072;16.286;2023-05-07T22:41:45;14.13;;;12.38;;
11596;SDS011;5854;48.072;16.286;2023-05-07T22:46:50;13.75;;;12.25;;
